sensor_id;sensor_type;location;lat;lon;timestamp;temperature;humidity
12291;DHT22;6208;48.956;9.076;2023-03-23T00:02:26;14.30;89.30
12291;DHT22;6208;48.956;9.076;2023-03-23T00:05:11;14.40;89.70
12291;DHT22;6208;48.956;9.076;2023-03-23T00:07:55;14.30;87.10
12291;DHT22;6208;48.956;9.076;2023-03-23T00:10:40;14.40;88.80
12291;DHT22;6208;48.956;9.076;2023-03-23T00:13:24;14.50;88.60
12291;DHT22;6208;48.956;9.076;2023-03-23T00:16:09;14.50;87.60
12291;DHT22;6208;48.956;9.076;2023-03-23T00:19:12;14.50;88.00
12291;DHT22;6208;48.956;9.076;2023-03-23T00:21:57;14.50;88.30
12291;DHT22;6208;48.956;9.076;2023-03-23T00:24:44;14.50;88.30
12291;DHT22;6208;48.956;9.076;2023-03-23T00:27:29;14.50;87.60
12291;DHT22;6208;48.956;9.076;2023-03-23T00:30:13;14.50;88.90
12291;DHT22;6208;48.956;9.076;2023-03-23T00:32:57;14.50;87.30
12291;DHT22;6208;48.956;9.076;2023-03-23T00:35:41;14.60;88.90
12291;DHT22;6208;48.956;9.076;2023-03-23T00:38:28;14.60;88.40
12291;DHT22;6208;48.956;9.076;2023-03-23T00:41:12;14.60;88.50
12291;DHT22;6208;48.956;9.076;2023-03-23T00:43:59;14.60;88.20
12291;DHT22;6208;48.956;9.076;2023-03-23T00:46:47;14.50;87.90
12291;DHT22;6208;48.956;9.076;2023-03-23T00:49:32;14.60;87.00
12291;DHT22;6208;48.956;9.076;2023-03-23T00:52:18;14.60;88.20
12291;DHT22;6208;48.956;9.076;2023-03-23T00:55:03;14.50;88.90
12291;DHT22;6208;48.956;9.076;2023-03-23T00:57:48;14.50;88.90
12291;DHT22;6208;48.956;9.076;2023-03-23T01:00:34;14.60;89.00
12291;DHT22;6208;48.956;9.076;2023-03-23T01:03:18;14.50;88.00
12291;DHT22;6208;48.956;9.076;2023-03-23T01:06:08;14.60;88.90
12291;DHT22;6208;48.956;9.076;2023-03-23T01:08:57;14.50;89.40
12291;DHT22;6208;48.956;9.076;2023-03-23T01:11:45;14.40;90.10
12291;DHT22;6208;48.956;9.076;2023-03-23T01:14:30;14.20;90.20
12291;DHT22;6208;48.956;9.076;2023-03-23T01:17:14;14.30;90.50
12291;DHT22;6208;48.956;9.076;2023-03-23T01:19:59;14.20;90.70
12291;DHT22;6208;48.956;9.076;2023-03-23T01:22:43;14.20;90.60
12291;DHT22;6208;48.956;9.076;2023-03-23T01:25:30;14.50;90.50
12291;DHT22;6208;48.956;9.076;2023-03-23T01:28:14;14.60;90.60
12291;DHT22;6208;48.956;9.076;2023-03-23T01:31:02;14.70;90.20
12291;DHT22;6208;48.956;9.076;2023-03-23T01:33:46;14.50;90.20
12291;DHT22;6208;48.956;9.076;2023-03-23T01:36:31;14.20;90.10
12291;DHT22;6208;48.956;9.076;2023-03-23T01:39:16;14.10;90.80
12291;DHT22;6208;48.956;9.076;2023-03-23T01:42:00;14.10;90.60
12291;DHT22;6208;48.956;9.076;2023-03-23T01:47:28;14.10;90.80
12291;DHT22;6208;48.956;9.076;2023-03-23T01:50:12;14.10;91.00
12291;DHT22;6208;48.956;9.076;2023-03-23T01:52:58;14.10;90.90
12291;DHT22;6208;48.956;9.076;2023-03-23T01:55:44;14.00;90.90
12291;DHT22;6208;48.956;9.076;2023-03-23T01:58:34;14.00;91.00
12291;DHT22;6208;48.956;9.076;2023-03-23T02:01:19;14.00;90.80
12291;DHT22;6208;48.956;9.076;2023-03-23T02:04:05;14.10;91.00
12291;DHT22;6208;48.956;9.076;2023-03-23T02:06:52;14.00;90.80
12291;DHT22;6208;48.956;9.076;2023-03-23T02:09:37;14.10;91.20
12291;DHT22;6208;48.956;9.076;2023-03-23T02:12:21;14.20;91.00
12291;DHT22;6208;48.956;9.076;2023-03-23T02:15:05;14.00;91.30
12291;DHT22;6208;48.956;9.076;2023-03-23T02:27:13;13.70;91.60
12291;DHT22;6208;48.956;9.076;2023-03-23T02:33:04;13.70;92.20
12291;DHT22;6208;48.956;9.076;2023-03-23T02:36:02;13.80;92.40
12291;DHT22;6208;48.956;9.076;2023-03-23T02:39:17;14.00;92.50
12291;DHT22;6208;48.956;9.076;2023-03-23T02:42:06;14.00;91.20
12291;DHT22;6208;48.956;9.076;2023-03-23T02:44:51;14.20;90.90
12291;DHT22;6208;48.956;9.076;2023-03-23T02:47:38;14.30;90.90
12291;DHT22;6208;48.956;9.076;2023-03-23T02:50:25;14.30;91.20
12291;DHT22;6208;48.956;9.076;2023-03-23T02:53:13;14.30;90.20
12291;DHT22;6208;48.956;9.076;2023-03-23T02:56:00;14.30;89.40
12291;DHT22;6208;48.956;9.076;2023-03-23T02:58:47;14.30;88.70
12291;DHT22;6208;48.956;9.076;2023-03-23T03:04:19;14.30;89.80
12291;DHT22;6208;48.956;9.076;2023-03-23T03:10:31;14.30;90.10
12291;DHT22;6208;48.956;9.076;2023-03-23T03:13:46;14.10;89.50
12291;DHT22;6208;48.956;9.076;2023-03-23T03:16:43;14.00;90.60
12291;DHT22;6208;48.956;9.076;2023-03-23T03:19:38;13.90;91.00
12291;DHT22;6208;48.956;9.076;2023-03-23T03:22:25;13.70;91.30
12291;DHT22;6208;48.956;9.076;2023-03-23T03:25:13;13.60;91.20
12291;DHT22;6208;48.956;9.076;2023-03-23T03:28:01;13.70;91.10
12291;DHT22;6208;48.956;9.076;2023-03-23T03:30:58;13.70;91.60
12291;DHT22;6208;48.956;9.076;2023-03-23T03:33:44;13.80;91.50
12291;DHT22;6208;48.956;9.076;2023-03-23T03:36:32;13.80;91.10
12291;DHT22;6208;48.956;9.076;2023-03-23T03:39:19;13.80;90.80
12291;DHT22;6208;48.956;9.076;2023-03-23T03:42:05;13.80;90.80
12291;DHT22;6208;48.956;9.076;2023-03-23T03:44:49;14.00;90.60
12291;DHT22;6208;48.956;9.076;2023-03-23T03:47:34;14.00;90.50
12291;DHT22;6208;48.956;9.076;2023-03-23T03:50:18;14.10;90.30
12291;DHT22;6208;48.956;9.076;2023-03-23T03:53:04;14.10;90.10
12291;DHT22;6208;48.956;9.076;2023-03-23T03:55:50;14.10;90.20
12291;DHT22;6208;48.956;9.076;2023-03-23T03:58:33;14.10;90.10
12291;DHT22;6208;48.956;9.076;2023-03-23T04:01:21;14.00;90.20
12291;DHT22;6208;48.956;9.076;2023-03-23T04:04:09;14.10;90.50
12291;DHT22;6208;48.956;9.076;2023-03-23T04:06:53;14.00;90.30
12291;DHT22;6208;48.956;9.076;2023-03-23T04:09:37;14.00;91.00
12291;DHT22;6208;48.956;9.076;2023-03-23T04:12:22;14.10;91.10
12291;DHT22;6208;48.956;9.076;2023-03-23T04:15:06;14.20;91.60
12291;DHT22;6208;48.956;9.076;2023-03-23T04:17:51;14.20;91.00
12291;DHT22;6208;48.956;9.076;2023-03-23T04:20:35;14.20;91.30
12291;DHT22;6208;48.956;9.076;2023-03-23T04:23:21;14.10;91.30
12291;DHT22;6208;48.956;9.076;2023-03-23T04:26:06;14.00;91.30
12291;DHT22;6208;48.956;9.076;2023-03-23T04:28:51;14.00;91.00
12291;DHT22;6208;48.956;9.076;2023-03-23T04:31:35;14.00;90.80
12291;DHT22;6208;48.956;9.076;2023-03-23T04:34:20;14.00;91.00
12291;DHT22;6208;48.956;9.076;2023-03-23T04:37:04;14.00;91.20
12291;DHT22;6208;48.956;9.076;2023-03-23T04:39:48;14.00;91.30
12291;DHT22;6208;48.956;9.076;2023-03-23T04:42:32;14.00;91.40
12291;DHT22;6208;48.956;9.076;2023-03-23T04:45:20;14.00;91.40
12291;DHT22;6208;48.956;9.076;2023-03-23T04:48:05;13.90;91.60
12291;DHT22;6208;48.956;9.076;2023-03-23T04:50:50;14.00;91.20
12291;DHT22;6208;48.956;9.076;2023-03-23T04:53:35;14.20;91.20
12291;DHT22;6208;48.956;9.076;2023-03-23T04:56:19;14.30;90.80
12291;DHT22;6208;48.956;9.076;2023-03-23T04:59:04;14.30;90.80
12291;DHT22;6208;48.956;9.076;2023-03-23T05:01:50;14.50;91.40
12291;DHT22;6208;48.956;9.076;2023-03-23T05:04:34;14.40;91.00
12291;DHT22;6208;48.956;9.076;2023-03-23T05:07:18;14.30;91.20
12291;DHT22;6208;48.956;9.076;2023-03-23T05:10:03;14.40;90.50
12291;DHT22;6208;48.956;9.076;2023-03-23T05:12:47;14.50;91.10
12291;DHT22;6208;48.956;9.076;2023-03-23T05:15:31;14.60;90.60
12291;DHT22;6208;48.956;9.076;2023-03-23T05:18:16;14.60;90.50
12291;DHT22;6208;48.956;9.076;2023-03-23T05:21:01;14.50;90.10
12291;DHT22;6208;48.956;9.076;2023-03-23T05:23:46;14.40;90.30
12291;DHT22;6208;48.956;9.076;2023-03-23T05:26:31;14.30;90.50
12291;DHT22;6208;48.956;9.076;2023-03-23T05:29:16;14.30;90.70
12291;DHT22;6208;48.956;9.076;2023-03-23T05:32:00;14.40;90.50
12291;DHT22;6208;48.956;9.076;2023-03-23T05:34:46;14.40;90.70
12291;DHT22;6208;48.956;9.076;2023-03-23T05:37:30;14.40;90.70
12291;DHT22;6208;48.956;9.076;2023-03-23T05:40:17;14.40;91.30
12291;DHT22;6208;48.956;9.076;2023-03-23T05:43:01;14.30;91.20
12291;DHT22;6208;48.956;9.076;2023-03-23T05:45:46;14.50;91.20
12291;DHT22;6208;48.956;9.076;2023-03-23T05:48:31;14.40;91.00
12291;DHT22;6208;48.956;9.076;2023-03-23T05:51:15;14.40;90.60
12291;DHT22;6208;48.956;9.076;2023-03-23T05:53:59;14.40;90.70
12291;DHT22;6208;48.956;9.076;2023-03-23T05:56:44;14.40;90.70
12291;DHT22;6208;48.956;9.076;2023-03-23T05:59:28;14.30;90.80
12291;DHT22;6208;48.956;9.076;2023-03-23T06:02:12;14.30;90.80
12291;DHT22;6208;48.956;9.076;2023-03-23T06:04:57;14.30;90.50
12291;DHT22;6208;48.956;9.076;2023-03-23T06:07:43;14.30;90.50
12291;DHT22;6208;48.956;9.076;2023-03-23T06:10:27;14.20;90.90
12291;DHT22;6208;48.956;9.076;2023-03-23T06:13:12;14.20;90.90
12291;DHT22;6208;48.956;9.076;2023-03-23T06:15:57;14.30;90.90
12291;DHT22;6208;48.956;9.076;2023-03-23T06:18:41;14.30;90.90
12291;DHT22;6208;48.956;9.076;2023-03-23T06:21:26;14.30;91.00
12291;DHT22;6208;48.956;9.076;2023-03-23T06:24:11;14.30;91.00
12291;DHT22;6208;48.956;9.076;2023-03-23T06:26:55;14.20;91.90
12291;DHT22;6208;48.956;9.076;2023-03-23T06:29:39;14.20;92.00
12291;DHT22;6208;48.956;9.076;2023-03-23T06:32:25;14.30;93.20
12291;DHT22;6208;48.956;9.076;2023-03-23T06:35:13;14.20;93.90
12291;DHT22;6208;48.956;9.076;2023-03-23T06:37:57;14.20;93.00
12291;DHT22;6208;48.956;9.076;2023-03-23T06:40:45;14.30;92.50
12291;DHT22;6208;48.956;9.076;2023-03-23T06:43:31;14.30;94.50
12291;DHT22;6208;48.956;9.076;2023-03-23T06:46:15;14.30;94.60
12291;DHT22;6208;48.956;9.076;2023-03-23T06:48:59;14.40;93.20
12291;DHT22;6208;48.956;9.076;2023-03-23T06:51:43;14.60;93.30
12291;DHT22;6208;48.956;9.076;2023-03-23T06:54:28;14.60;95.50
12291;DHT22;6208;48.956;9.076;2023-03-23T06:57:12;14.50;92.40
12291;DHT22;6208;48.956;9.076;2023-03-23T06:59:56;14.70;92.60
12291;DHT22;6208;48.956;9.076;2023-03-23T07:02:40;14.60;92.80
12291;DHT22;6208;48.956;9.076;2023-03-23T07:05:25;14.50;94.30
12291;DHT22;6208;48.956;9.076;2023-03-23T07:08:10;14.80;93.40
12291;DHT22;6208;48.956;9.076;2023-03-23T07:10:55;14.90;93.50
12291;DHT22;6208;48.956;9.076;2023-03-23T07:13:40;14.90;92.50
12291;DHT22;6208;48.956;9.076;2023-03-23T07:16:24;14.80;93.90
12291;DHT22;6208;48.956;9.076;2023-03-23T07:19:08;14.80;93.70
12291;DHT22;6208;48.956;9.076;2023-03-23T07:21:52;14.60;94.50
12291;DHT22;6208;48.956;9.076;2023-03-23T07:24:36;14.70;93.60
12291;DHT22;6208;48.956;9.076;2023-03-23T07:27:21;14.80;93.70
12291;DHT22;6208;48.956;9.076;2023-03-23T07:30:05;14.60;94.40
12291;DHT22;6208;48.956;9.076;2023-03-23T07:32:49;14.60;94.10
12291;DHT22;6208;48.956;9.076;2023-03-23T07:35:35;14.60;95.00
12291;DHT22;6208;48.956;9.076;2023-03-23T07:38:19;14.50;95.60
12291;DHT22;6208;48.956;9.076;2023-03-23T07:41:05;14.50;94.20
12291;DHT22;6208;48.956;9.076;2023-03-23T07:43:50;14.50;94.10
12291;DHT22;6208;48.956;9.076;2023-03-23T07:46:34;14.60;94.20
12291;DHT22;6208;48.956;9.076;2023-03-23T07:49:19;14.60;94.20
12291;DHT22;6208;48.956;9.076;2023-03-23T07:52:04;14.60;94.30
12291;DHT22;6208;48.956;9.076;2023-03-23T07:54:48;14.70;94.90
12291;DHT22;6208;48.956;9.076;2023-03-23T07:57:32;14.70;94.90
12291;DHT22;6208;48.956;9.076;2023-03-23T08:00:18;14.70;95.10
12291;DHT22;6208;48.956;9.076;2023-03-23T08:03:04;14.70;95.10
12291;DHT22;6208;48.956;9.076;2023-03-23T08:05:50;14.80;95.40
12291;DHT22;6208;48.956;9.076;2023-03-23T08:08:34;14.80;95.50
12291;DHT22;6208;48.956;9.076;2023-03-23T08:11:20;14.80;95.80
12291;DHT22;6208;48.956;9.076;2023-03-23T08:14:04;14.80;96.00
12291;DHT22;6208;48.956;9.076;2023-03-23T08:16:49;14.70;96.10
12291;DHT22;6208;48.956;9.076;2023-03-23T08:19:33;14.70;96.30
12291;DHT22;6208;48.956;9.076;2023-03-23T08:22:20;14.70;96.50
12291;DHT22;6208;48.956;9.076;2023-03-23T08:25:06;14.70;96.40
12291;DHT22;6208;48.956;9.076;2023-03-23T08:27:50;14.80;96.60
12291;DHT22;6208;48.956;9.076;2023-03-23T08:30:34;14.70;96.60
12291;DHT22;6208;48.956;9.076;2023-03-23T08:33:20;14.60;96.70
12291;DHT22;6208;48.956;9.076;2023-03-23T08:36:05;14.60;97.00
12291;DHT22;6208;48.956;9.076;2023-03-23T08:38:50;14.60;97.20
12291;DHT22;6208;48.956;9.076;2023-03-23T08:41:36;14.50;97.30
12291;DHT22;6208;48.956;9.076;2023-03-23T08:44:20;14.50;97.60
12291;DHT22;6208;48.956;9.076;2023-03-23T08:47:04;14.50;97.80
12291;DHT22;6208;48.956;9.076;2023-03-23T08:49:50;14.50;97.90
12291;DHT22;6208;48.956;9.076;2023-03-23T08:52:37;14.50;98.10
12291;DHT22;6208;48.956;9.076;2023-03-23T09:19:58;17.30;99.20
12291;DHT22;6208;48.956;9.076;2023-03-23T09:22:44;14.80;97.40
12291;DHT22;6208;48.956;9.076;2023-03-23T09:25:29;14.80;97.60
12291;DHT22;6208;48.956;9.076;2023-03-23T09:28:13;14.80;97.30
12291;DHT22;6208;48.956;9.076;2023-03-23T09:30:58;14.70;97.60
12291;DHT22;6208;48.956;9.076;2023-03-23T09:33:42;14.70;98.20
12291;DHT22;6208;48.956;9.076;2023-03-23T09:36:29;14.60;98.70
12291;DHT22;6208;48.956;9.076;2023-03-23T09:39:14;14.30;99.70
12291;DHT22;6208;48.956;9.076;2023-03-23T09:45:13;14.10;99.90
12291;DHT22;6208;48.956;9.076;2023-03-23T09:48:29;14.20;99.90
12291;DHT22;6208;48.956;9.076;2023-03-23T09:51:34;14.30;99.90
12291;DHT22;6208;48.956;9.076;2023-03-23T09:54:37;14.40;99.90
12291;DHT22;6208;48.956;9.076;2023-03-23T10:00:34;14.70;99.90
12291;DHT22;6208;48.956;9.076;2023-03-23T10:03:30;14.60;99.90
12291;DHT22;6208;48.956;9.076;2023-03-23T10:06:17;14.60;99.90
12291;DHT22;6208;48.956;9.076;2023-03-23T10:09:03;14.60;99.90
12291;DHT22;6208;48.956;9.076;2023-03-23T10:15:09;14.30;99.90
12291;DHT22;6208;48.956;9.076;2023-03-23T10:18:08;14.30;99.90
12291;DHT22;6208;48.956;9.076;2023-03-23T10:20:59;14.30;99.90
12291;DHT22;6208;48.956;9.076;2023-03-23T10:23:59;14.40;99.90
12291;DHT22;6208;48.956;9.076;2023-03-23T10:33:20;14.70;99.90
12291;DHT22;6208;48.956;9.076;2023-03-23T10:36:19;14.90;99.90
12291;DHT22;6208;48.956;9.076;2023-03-23T10:39:13;15.00;99.90
12291;DHT22;6208;48.956;9.076;2023-03-23T10:42:00;15.20;99.90
12291;DHT22;6208;48.956;9.076;2023-03-23T10:44:51;15.00;99.90
12291;DHT22;6208;48.956;9.076;2023-03-23T10:47:43;15.10;99.90
12291;DHT22;6208;48.956;9.076;2023-03-23T10:50:31;15.00;99.90
12291;DHT22;6208;48.956;9.076;2023-03-23T10:53:18;15.10;99.90
12291;DHT22;6208;48.956;9.076;2023-03-23T10:56:04;15.00;99.90
12291;DHT22;6208;48.956;9.076;2023-03-23T10:58:49;14.80;99.90
12291;DHT22;6208;48.956;9.076;2023-03-23T11:01:34;14.90;99.90
12291;DHT22;6208;48.956;9.076;2023-03-23T11:04:20;14.80;99.90
12291;DHT22;6208;48.956;9.076;2023-03-23T11:07:25;14.80;99.90
12291;DHT22;6208;48.956;9.076;2023-03-23T11:10:22;14.70;99.90
12291;DHT22;6208;48.956;9.076;2023-03-23T11:13:16;14.70;99.90
12291;DHT22;6208;48.956;9.076;2023-03-23T11:16:01;14.60;99.90
12291;DHT22;6208;48.956;9.076;2023-03-23T11:18:45;14.50;99.90
12291;DHT22;6208;48.956;9.076;2023-03-23T11:21:31;14.50;99.90
12291;DHT22;6208;48.956;9.076;2023-03-23T11:24:16;14.60;99.90
12291;DHT22;6208;48.956;9.076;2023-03-23T11:27:00;14.60;99.90
12291;DHT22;6208;48.956;9.076;2023-03-23T11:29:49;14.60;99.90
12291;DHT22;6208;48.956;9.076;2023-03-23T11:32:35;14.60;99.90
12291;DHT22;6208;48.956;9.076;2023-03-23T11:35:25;14.60;99.90
12291;DHT22;6208;48.956;9.076;2023-03-23T11:38:17;14.70;99.90
12291;DHT22;6208;48.956;9.076;2023-03-23T11:41:01;14.70;99.90
12291;DHT22;6208;48.956;9.076;2023-03-23T11:43:52;14.80;99.90
12291;DHT22;6208;48.956;9.076;2023-03-23T11:46:59;14.80;99.90
12291;DHT22;6208;48.956;9.076;2023-03-23T11:58:35;15.20;99.90
12291;DHT22;6208;48.956;9.076;2023-03-23T12:04:50;15.20;99.90
12291;DHT22;6208;48.956;9.076;2023-03-23T12:08:01;15.30;99.90
12291;DHT22;6208;48.956;9.076;2023-03-23T12:16:58;15.30;99.90
12291;DHT22;6208;48.956;9.076;2023-03-23T12:34:26;15.80;99.90
12291;DHT22;6208;48.956;9.076;2023-03-23T12:40:16;16.00;99.20
12291;DHT22;6208;48.956;9.076;2023-03-23T13:16:10;16.10;98.00
12291;DHT22;6208;48.956;9.076;2023-03-23T14:03:54;16.60;97.00
12291;DHT22;6208;48.956;9.076;2023-03-23T14:11:26;16.50;97.50
12291;DHT22;6208;48.956;9.076;2023-03-23T15:38:17;16.30;97.10
12291;DHT22;6208;48.956;9.076;2023-03-23T15:41:21;16.20;98.50
12291;DHT22;6208;48.956;9.076;2023-03-23T15:44:11;16.20;97.60
12291;DHT22;6208;48.956;9.076;2023-03-23T15:47:35;16.10;98.30
12291;DHT22;6208;48.956;9.076;2023-03-23T15:53:48;16.10;98.20
12291;DHT22;6208;48.956;9.076;2023-03-23T15:56:33;16.00;98.00
12291;DHT22;6208;48.956;9.076;2023-03-23T15:59:17;16.00;98.10
12291;DHT22;6208;48.956;9.076;2023-03-23T16:02:02;16.00;97.80
12291;DHT22;6208;48.956;9.076;2023-03-23T16:04:48;16.00;99.00
12291;DHT22;6208;48.956;9.076;2023-03-23T16:07:32;15.90;99.80
12291;DHT22;6208;48.956;9.076;2023-03-23T16:10:20;16.00;99.90
12291;DHT22;6208;48.956;9.076;2023-03-23T16:13:05;16.00;98.70
12291;DHT22;6208;48.956;9.076;2023-03-23T16:15:49;16.00;99.70
12291;DHT22;6208;48.956;9.076;2023-03-23T16:18:34;15.90;99.90
12291;DHT22;6208;48.956;9.076;2023-03-23T16:21:19;15.90;98.90
12291;DHT22;6208;48.956;9.076;2023-03-23T16:24:03;15.90;98.60
12291;DHT22;6208;48.956;9.076;2023-03-23T16:26:47;16.00;98.50
12291;DHT22;6208;48.956;9.076;2023-03-23T16:29:31;16.00;98.20
12291;DHT22;6208;48.956;9.076;2023-03-23T16:32:16;16.00;98.10
12291;DHT22;6208;48.956;9.076;2023-03-23T16:35:00;16.00;98.70
12291;DHT22;6208;48.956;9.076;2023-03-23T16:37:45;16.00;98.20
12291;DHT22;6208;48.956;9.076;2023-03-23T16:40:30;16.00;98.50
12291;DHT22;6208;48.956;9.076;2023-03-23T16:43:15;16.00;98.50
12291;DHT22;6208;48.956;9.076;2023-03-23T16:45:59;15.90;99.10
12291;DHT22;6208;48.956;9.076;2023-03-23T16:48:43;16.00;98.90
12291;DHT22;6208;48.956;9.076;2023-03-23T16:51:28;16.00;98.80
12291;DHT22;6208;48.956;9.076;2023-03-23T16:54:12;15.90;99.00
12291;DHT22;6208;48.956;9.076;2023-03-23T16:56:57;15.90;99.40
12291;DHT22;6208;48.956;9.076;2023-03-23T16:59:41;16.00;99.20
12291;DHT22;6208;48.956;9.076;2023-03-23T17:02:26;15.90;99.30
12291;DHT22;6208;48.956;9.076;2023-03-23T17:05:10;16.00;99.20
12291;DHT22;6208;48.956;9.076;2023-03-23T17:07:55;16.10;98.80
12291;DHT22;6208;48.956;9.076;2023-03-23T17:10:39;16.10;98.90
12291;DHT22;6208;48.956;9.076;2023-03-23T17:13:24;15.90;99.70
12291;DHT22;6208;48.956;9.076;2023-03-23T17:16:10;15.70;99.90
12291;DHT22;6208;48.956;9.076;2023-03-23T17:18:55;15.80;99.50
12291;DHT22;6208;48.956;9.076;2023-03-23T17:21:40;15.80;99.30
12291;DHT22;6208;48.956;9.076;2023-03-23T17:24:24;15.90;99.50
12291;DHT22;6208;48.956;9.076;2023-03-23T17:27:10;15.80;99.20
12291;DHT22;6208;48.956;9.076;2023-03-23T17:29:55;15.50;99.90
12291;DHT22;6208;48.956;9.076;2023-03-23T17:32:40;15.40;99.90
12291;DHT22;6208;48.956;9.076;2023-03-23T17:35:24;15.50;99.90
12291;DHT22;6208;48.956;9.076;2023-03-23T17:38:09;15.40;99.90
12291;DHT22;6208;48.956;9.076;2023-03-23T17:40:57;15.20;99.90
12291;DHT22;6208;48.956;9.076;2023-03-23T17:43:42;15.10;99.90
12291;DHT22;6208;48.956;9.076;2023-03-23T17:46:27;15.00;99.90
12291;DHT22;6208;48.956;9.076;2023-03-23T17:49:11;15.30;99.90
12291;DHT22;6208;48.956;9.076;2023-03-23T17:51:56;15.50;99.90
12291;DHT22;6208;48.956;9.076;2023-03-23T17:54:40;15.40;99.90
12291;DHT22;6208;48.956;9.076;2023-03-23T17:57:25;15.40;99.90
12291;DHT22;6208;48.956;9.076;2023-03-23T18:00:09;15.60;99.90
12291;DHT22;6208;48.956;9.076;2023-03-23T18:02:54;15.50;99.90
12291;DHT22;6208;48.956;9.076;2023-03-23T18:05:39;15.40;99.90
12291;DHT22;6208;48.956;9.076;2023-03-23T18:08:23;15.40;99.90
12291;DHT22;6208;48.956;9.076;2023-03-23T18:11:09;15.50;99.90
12291;DHT22;6208;48.956;9.076;2023-03-23T18:13:53;15.50;99.90
12291;DHT22;6208;48.956;9.076;2023-03-23T18:16:38;15.50;99.90
12291;DHT22;6208;48.956;9.076;2023-03-23T18:19:22;15.50;99.70
12291;DHT22;6208;48.956;9.076;2023-03-23T18:22:09;15.50;99.40
12291;DHT22;6208;48.956;9.076;2023-03-23T18:24:53;15.30;97.40
12291;DHT22;6208;48.956;9.076;2023-03-23T18:27:38;15.20;97.40
12291;DHT22;6208;48.956;9.076;2023-03-23T18:30:22;15.20;97.00
12291;DHT22;6208;48.956;9.076;2023-03-23T18:33:06;15.20;96.50
12291;DHT22;6208;48.956;9.076;2023-03-23T18:35:56;15.20;95.90
12291;DHT22;6208;48.956;9.076;2023-03-23T18:38:41;15.20;96.10
12291;DHT22;6208;48.956;9.076;2023-03-23T18:41:25;15.20;94.80
12291;DHT22;6208;48.956;9.076;2023-03-23T18:44:09;15.20;94.70
12291;DHT22;6208;48.956;9.076;2023-03-23T18:46:54;15.20;94.30
12291;DHT22;6208;48.956;9.076;2023-03-23T18:52:22;15.20;94.40
12291;DHT22;6208;48.956;9.076;2023-03-23T18:55:09;15.20;94.80
12291;DHT22;6208;48.956;9.076;2023-03-23T18:57:53;15.20;94.70
12291;DHT22;6208;48.956;9.076;2023-03-23T19:00:38;15.30;94.50
12291;DHT22;6208;48.956;9.076;2023-03-23T19:03:22;15.20;94.30
12291;DHT22;6208;48.956;9.076;2023-03-23T19:06:14;15.30;94.50
12291;DHT22;6208;48.956;9.076;2023-03-23T19:08:59;15.30;94.10
12291;DHT22;6208;48.956;9.076;2023-03-23T19:11:45;15.40;93.10
12291;DHT22;6208;48.956;9.076;2023-03-23T19:14:29;15.40;93.30
12291;DHT22;6208;48.956;9.076;2023-03-23T19:17:14;15.40;93.60
12291;DHT22;6208;48.956;9.076;2023-03-23T19:19:59;15.40;93.50
12291;DHT22;6208;48.956;9.076;2023-03-23T19:22:43;15.40;93.00
12291;DHT22;6208;48.956;9.076;2023-03-23T19:25:27;15.40;93.30
12291;DHT22;6208;48.956;9.076;2023-03-23T19:28:12;15.50;93.50
12291;DHT22;6208;48.956;9.076;2023-03-23T19:30:57;15.50;93.30
12291;DHT22;6208;48.956;9.076;2023-03-23T19:33:42;15.40;93.30
12291;DHT22;6208;48.956;9.076;2023-03-23T19:36:26;15.50;93.50
12291;DHT22;6208;48.956;9.076;2023-03-23T19:39:10;15.50;93.30
12291;DHT22;6208;48.956;9.076;2023-03-23T19:41:55;15.40;93.10
12291;DHT22;6208;48.956;9.076;2023-03-23T19:44:40;15.40;93.40
12291;DHT22;6208;48.956;9.076;2023-03-23T19:47:24;15.40;93.30
12291;DHT22;6208;48.956;9.076;2023-03-23T19:50:08;15.40;93.20
12291;DHT22;6208;48.956;9.076;2023-03-23T19:52:53;15.40;93.60
12291;DHT22;6208;48.956;9.076;2023-03-23T19:55:37;15.40;93.60
12291;DHT22;6208;48.956;9.076;2023-03-23T19:58:21;15.40;93.70
12291;DHT22;6208;48.956;9.076;2023-03-23T20:01:06;15.40;93.20
12291;DHT22;6208;48.956;9.076;2023-03-23T20:03:51;15.30;93.40
12291;DHT22;6208;48.956;9.076;2023-03-23T20:06:36;15.40;93.50
12291;DHT22;6208;48.956;9.076;2023-03-23T20:09:21;15.40;93.80
12291;DHT22;6208;48.956;9.076;2023-03-23T20:12:05;15.40;93.90
12291;DHT22;6208;48.956;9.076;2023-03-23T20:14:49;15.40;93.90
12291;DHT22;6208;48.956;9.076;2023-03-23T20:17:34;15.30;93.60
12291;DHT22;6208;48.956;9.076;2023-03-23T20:20:19;15.20;93.70
12291;DHT22;6208;48.956;9.076;2023-03-23T20:23:04;15.20;93.70
12291;DHT22;6208;48.956;9.076;2023-03-23T20:25:50;15.20;93.40
12291;DHT22;6208;48.956;9.076;2023-03-23T20:28:34;15.30;93.80
12291;DHT22;6208;48.956;9.076;2023-03-23T20:31:24;15.20;93.90
12291;DHT22;6208;48.956;9.076;2023-03-23T20:34:12;15.20;94.30
12291;DHT22;6208;48.956;9.076;2023-03-23T20:36:58;15.20;94.20
12291;DHT22;6208;48.956;9.076;2023-03-23T20:39:43;15.20;94.30
12291;DHT22;6208;48.956;9.076;2023-03-23T20:42:29;15.20;94.10
12291;DHT22;6208;48.956;9.076;2023-03-23T20:45:16;15.10;94.30
12291;DHT22;6208;48.956;9.076;2023-03-23T20:48:02;15.20;94.60
12291;DHT22;6208;48.956;9.076;2023-03-23T20:50:46;15.30;94.80
12291;DHT22;6208;48.956;9.076;2023-03-23T20:53:32;15.40;94.70
12291;DHT22;6208;48.956;9.076;2023-03-23T20:56:17;15.40;94.50
12291;DHT22;6208;48.956;9.076;2023-03-23T20:59:03;15.50;94.40
12291;DHT22;6208;48.956;9.076;2023-03-23T21:01:49;15.50;94.20
12291;DHT22;6208;48.956;9.076;2023-03-23T21:04:34;15.60;94.00
12291;DHT22;6208;48.956;9.076;2023-03-23T21:07:20;15.20;94.60
12291;DHT22;6208;48.956;9.076;2023-03-23T21:10:06;15.30;94.80
12291;DHT22;6208;48.956;9.076;2023-03-23T21:12:50;15.00;94.90
12291;DHT22;6208;48.956;9.076;2023-03-23T21:15:34;15.00;95.10
12291;DHT22;6208;48.956;9.076;2023-03-23T21:18:20;15.00;95.10
12291;DHT22;6208;48.956;9.076;2023-03-23T21:21:05;14.70;95.50
12291;DHT22;6208;48.956;9.076;2023-03-23T21:26:39;14.70;95.70
12291;DHT22;6208;48.956;9.076;2023-03-23T21:29:23;14.60;95.90
12291;DHT22;6208;48.956;9.076;2023-03-23T21:32:07;14.50;95.70
12291;DHT22;6208;48.956;9.076;2023-03-23T21:34:53;14.50;96.00
12291;DHT22;6208;48.956;9.076;2023-03-23T21:37:38;14.50;96.20
12291;DHT22;6208;48.956;9.076;2023-03-23T21:40:22;14.50;96.90
12291;DHT22;6208;48.956;9.076;2023-03-23T21:43:08;14.70;96.80
12291;DHT22;6208;48.956;9.076;2023-03-23T21:46:03;14.80;96.50
12291;DHT22;6208;48.956;9.076;2023-03-23T21:48:49;14.90;96.10
12291;DHT22;6208;48.956;9.076;2023-03-23T21:51:34;14.80;95.50
12291;DHT22;6208;48.956;9.076;2023-03-23T21:57:06;14.50;96.10
12291;DHT22;6208;48.956;9.076;2023-03-23T21:59:50;14.40;96.10
12291;DHT22;6208;48.956;9.076;2023-03-23T22:02:35;14.50;96.40
12291;DHT22;6208;48.956;9.076;2023-03-23T22:05:19;14.50;96.70
12291;DHT22;6208;48.956;9.076;2023-03-23T22:08:03;14.50;96.90
12291;DHT22;6208;48.956;9.076;2023-03-23T22:10:51;14.50;97.00
12291;DHT22;6208;48.956;9.076;2023-03-23T22:13:37;14.50;97.10
12291;DHT22;6208;48.956;9.076;2023-03-23T22:16:21;14.30;96.60
12291;DHT22;6208;48.956;9.076;2023-03-23T22:19:06;14.30;96.80
12291;DHT22;6208;48.956;9.076;2023-03-23T22:21:50;14.30;97.10
12291;DHT22;6208;48.956;9.076;2023-03-23T22:24:34;14.50;96.60